LTBJ/ADB METAR and TAF weather

Enter ICAO airport designator
Station Type Date Time Source
LTBJ METAR 2019/10/22 15:50 UTC NOAA

LTBJ 221550Z 02016KT CAVOK 23/11 Q1015 NOSIG


Station Type Date Time Source
LTBJ Decoded METAR 2019/10/22 15:50 UTC NOAA

Izmir / Adnan Menderes, Turkey (LTBJ) 38-16N 027-09E 120M
Oct 22, 2019 - 11:50 AM EDT / 2019.10.22 1550 UTC
Wind: from the NNE (020 degrees) at 18 MPH (16 KT):0
Visibility: greater than 7 mile(s):0
Temperature: 73 F (23 C)
Dew Point: 51 F (11 C)
Relative Humidity: 46%
Pressure (altimeter): 29.97 in. Hg (1015 hPa)
ob: LTBJ 221550Z 02016KT CAVOK 23/11 Q1015 NOSIG
cycle: 16

Station Type Date Time Source
LTBJ TAF 2019/10/22 12:03 UTC NOAA

TAF LTBJ 221040Z 2212/2312 36018G28KT 9999 FEW030
BECMG 2215/2218 CAVOK
BECMG 2218/2221 35013KT

Example: see airport list